sensor_id;sensor_type;location;lat;lon;timestamp;P1;durP1;ratioP1;P2;durP2;ratioP2
10142;SDS011;5112;54.088;13.446;2023-05-20T00:02:24;4.47;;;2.47;;
10142;SDS011;5112;54.088;13.446;2023-05-20T00:12:26;3.47;;;2.70;;
10142;SDS011;5112;54.088;13.446;2023-05-20T00:22:29;4.13;;;2.67;;
10142;SDS011;5112;54.088;13.446;2023-05-20T00:32:30;2.83;;;2.60;;
10142;SDS011;5112;54.088;13.446;2023-05-20T00:42:33;2.53;;;2.30;;
10142;SDS011;5112;54.088;13.446;2023-05-20T00:52:35;4.13;;;2.90;;
10142;SDS011;5112;54.088;13.446;2023-05-20T01:02:39;3.47;;;2.60;;
10142;SDS011;5112;54.088;13.446;2023-05-20T01:12:41;2.87;;;2.47;;
10142;SDS011;5112;54.088;13.446;2023-05-20T01:22:47;3.37;;;3.07;;
10142;SDS011;5112;54.088;13.446;2023-05-20T01:32:51;3.47;;;2.30;;
10142;SDS011;5112;54.088;13.446;2023-05-20T01:42:59;2.80;;;2.60;;
10142;SDS011;5112;54.088;13.446;2023-05-20T01:53:02;3.03;;;2.83;;
10142;SDS011;5112;54.088;13.446;2023-05-20T02:03:06;4.60;;;2.60;;
10142;SDS011;5112;54.088;13.446;2023-05-20T02:13:07;2.87;;;2.67;;
10142;SDS011;5112;54.088;13.446;2023-05-20T02:23:10;3.23;;;2.93;;
10142;SDS011;5112;54.088;13.446;2023-05-20T02:33:12;2.93;;;2.57;;
10142;SDS011;5112;54.088;13.446;2023-05-20T02:43:15;2.90;;;2.67;;
10142;SDS011;5112;54.088;13.446;2023-05-20T02:53:16;3.10;;;2.90;;
10142;SDS011;5112;54.088;13.446;2023-05-20T03:03:19;3.23;;;2.93;;
10142;SDS011;5112;54.088;13.446;2023-05-20T03:13:21;3.23;;;2.90;;
10142;SDS011;5112;54.088;13.446;2023-05-20T03:23:24;2.93;;;2.73;;
10142;SDS011;5112;54.088;13.446;2023-05-20T03:33:26;3.63;;;2.80;;
10142;SDS011;5112;54.088;13.446;2023-05-20T03:43:29;3.40;;;2.73;;
10142;SDS011;5112;54.088;13.446;2023-05-20T03:53:30;3.47;;;3.17;;
10142;SDS011;5112;54.088;13.446;2023-05-20T04:03:33;3.40;;;2.63;;
10142;SDS011;5112;54.088;13.446;2023-05-20T04:13:35;5.00;;;2.57;;
10142;SDS011;5112;54.088;13.446;2023-05-20T04:23:38;2.70;;;2.50;;
10142;SDS011;5112;54.088;13.446;2023-05-20T04:33:40;2.50;;;2.30;;
10142;SDS011;5112;54.088;13.446;2023-05-20T04:43:43;4.37;;;2.23;;
10142;SDS011;5112;54.088;13.446;2023-05-20T04:53:45;3.10;;;2.30;;
10142;SDS011;5112;54.088;13.446;2023-05-20T05:03:48;3.20;;;2.30;;
10142;SDS011;5112;54.088;13.446;2023-05-20T05:13:50;3.53;;;2.43;;
10142;SDS011;5112;54.088;13.446;2023-05-20T05:23:53;4.37;;;2.67;;
10142;SDS011;5112;54.088;13.446;2023-05-20T05:33:54;7.10;;;3.10;;
10142;SDS011;5112;54.088;13.446;2023-05-20T05:43:57;3.13;;;2.83;;
10142;SDS011;5112;54.088;13.446;2023-05-20T05:53:59;4.47;;;2.93;;
10142;SDS011;5112;54.088;13.446;2023-05-20T06:04:02;3.30;;;2.77;;
10142;SDS011;5112;54.088;13.446;2023-05-20T06:14:04;3.03;;;2.73;;
10142;SDS011;5112;54.088;13.446;2023-05-20T06:24:07;4.63;;;2.73;;
10142;SDS011;5112;54.088;13.446;2023-05-20T06:34:09;4.63;;;2.83;;
10142;SDS011;5112;54.088;13.446;2023-05-20T06:44:12;4.50;;;3.17;;
10142;SDS011;5112;54.088;13.446;2023-05-20T06:54:14;4.90;;;3.20;;
10142;SDS011;5112;54.088;13.446;2023-05-20T07:04:17;5.10;;;3.40;;
10142;SDS011;5112;54.088;13.446;2023-05-20T07:14:18;6.33;;;3.30;;
10142;SDS011;5112;54.088;13.446;2023-05-20T07:24:21;4.57;;;2.80;;
10142;SDS011;5112;54.088;13.446;2023-05-20T07:34:23;2.63;;;2.43;;
10142;SDS011;5112;54.088;13.446;2023-05-20T07:44:26;3.13;;;2.83;;
10142;SDS011;5112;54.088;13.446;2023-05-20T07:54:27;3.33;;;2.83;;
10142;SDS011;5112;54.088;13.446;2023-05-20T08:04:30;3.37;;;2.73;;
10142;SDS011;5112;54.088;13.446;2023-05-20T08:14:32;4.70;;;2.93;;
10142;SDS011;5112;54.088;13.446;2023-05-20T08:24:35;4.83;;;3.17;;
10142;SDS011;5112;54.088;13.446;2023-05-20T08:34:37;3.23;;;2.90;;
10142;SDS011;5112;54.088;13.446;2023-05-20T08:44:40;4.07;;;2.80;;
10142;SDS011;5112;54.088;13.446;2023-05-20T08:54:43;4.03;;;2.60;;
10142;SDS011;5112;54.088;13.446;2023-05-20T09:04:47;5.53;;;2.57;;
10142;SDS011;5112;54.088;13.446;2023-05-20T09:14:49;3.97;;;2.30;;
10142;SDS011;5112;54.088;13.446;2023-05-20T09:24:52;2.63;;;2.40;;
10142;SDS011;5112;54.088;13.446;2023-05-20T09:34:54;3.13;;;2.33;;
10142;SDS011;5112;54.088;13.446;2023-05-20T09:44:59;3.60;;;2.10;;
10142;SDS011;5112;54.088;13.446;2023-05-20T09:55:05;2.97;;;1.80;;
10142;SDS011;5112;54.088;13.446;2023-05-20T10:05:11;3.77;;;2.40;;
10142;SDS011;5112;54.088;13.446;2023-05-20T10:15:22;2.23;;;1.97;;
10142;SDS011;5112;54.088;13.446;2023-05-20T10:25:29;3.00;;;1.80;;
10142;SDS011;5112;54.088;13.446;2023-05-20T10:35:31;2.20;;;1.43;;
10142;SDS011;5112;54.088;13.446;2023-05-20T10:45:34;2.20;;;1.50;;
10142;SDS011;5112;54.088;13.446;2023-05-20T10:55:47;2.63;;;1.47;;
10142;SDS011;5112;54.088;13.446;2023-05-20T11:05:52;5.03;;;1.77;;
10142;SDS011;5112;54.088;13.446;2023-05-20T11:15:54;4.73;;;2.13;;
10142;SDS011;5112;54.088;13.446;2023-05-20T11:25:58;3.07;;;2.57;;
10142;SDS011;5112;54.088;13.446;2023-05-20T11:36:00;2.80;;;2.00;;
10142;SDS011;5112;54.088;13.446;2023-05-20T11:46:04;2.50;;;2.00;;
10142;SDS011;5112;54.088;13.446;2023-05-20T11:56:06;2.47;;;1.70;;
10142;SDS011;5112;54.088;13.446;2023-05-20T12:06:11;3.20;;;2.00;;
10142;SDS011;5112;54.088;13.446;2023-05-20T12:16:13;2.10;;;1.83;;
10142;SDS011;5112;54.088;13.446;2023-05-20T12:26:16;4.23;;;1.90;;
10142;SDS011;5112;54.088;13.446;2023-05-20T12:36:17;2.33;;;1.53;;
10142;SDS011;5112;54.088;13.446;2023-05-20T12:46:20;2.63;;;1.80;;
10142;SDS011;5112;54.088;13.446;2023-05-20T12:56:22;4.70;;;1.87;;
10142;SDS011;5112;54.088;13.446;2023-05-20T13:06:26;2.20;;;2.00;;
10142;SDS011;5112;54.088;13.446;2023-05-20T13:16:28;3.93;;;2.23;;
10142;SDS011;5112;54.088;13.446;2023-05-20T13:26:31;3.03;;;2.20;;
10142;SDS011;5112;54.088;13.446;2023-05-20T13:36:32;2.47;;;2.10;;
10142;SDS011;5112;54.088;13.446;2023-05-20T13:46:35;2.90;;;2.10;;
10142;SDS011;5112;54.088;13.446;2023-05-20T13:56:37;3.57;;;1.90;;
10142;SDS011;5112;54.088;13.446;2023-05-20T14:06:40;3.33;;;2.20;;
10142;SDS011;5112;54.088;13.446;2023-05-20T14:16:42;4.30;;;2.20;;
10142;SDS011;5112;54.088;13.446;2023-05-20T14:26:45;3.77;;;2.10;;
10142;SDS011;5112;54.088;13.446;2023-05-20T14:36:46;3.77;;;1.90;;
10142;SDS011;5112;54.088;13.446;2023-05-20T14:46:49;3.57;;;2.27;;
10142;SDS011;5112;54.088;13.446;2023-05-20T14:56:51;4.30;;;2.17;;
10142;SDS011;5112;54.088;13.446;2023-05-20T15:06:54;2.57;;;1.97;;
10142;SDS011;5112;54.088;13.446;2023-05-20T15:16:56;4.73;;;2.00;;
10142;SDS011;5112;54.088;13.446;2023-05-20T15:26:59;3.47;;;2.30;;
10142;SDS011;5112;54.088;13.446;2023-05-20T15:37:01;4.10;;;2.27;;
10142;SDS011;5112;54.088;13.446;2023-05-20T15:47:04;2.73;;;1.77;;
10142;SDS011;5112;54.088;13.446;2023-05-20T15:57:05;3.20;;;2.23;;
10142;SDS011;5112;54.088;13.446;2023-05-20T16:07:08;2.23;;;1.50;;
10142;SDS011;5112;54.088;13.446;2023-05-20T16:17:11;2.90;;;1.70;;
10142;SDS011;5112;54.088;13.446;2023-05-20T16:27:14;3.03;;;2.27;;
10142;SDS011;5112;54.088;13.446;2023-05-20T16:37:16;4.33;;;2.53;;
10142;SDS011;5112;54.088;13.446;2023-05-20T16:47:19;2.37;;;2.07;;
10142;SDS011;5112;54.088;13.446;2023-05-20T16:57:20;3.77;;;3.47;;
10142;SDS011;5112;54.088;13.446;2023-05-20T17:07:23;3.07;;;2.20;;
10142;SDS011;5112;54.088;13.446;2023-05-20T17:17:25;2.53;;;2.00;;
10142;SDS011;5112;54.088;13.446;2023-05-20T17:27:28;2.87;;;2.00;;
10142;SDS011;5112;54.088;13.446;2023-05-20T17:37:30;3.40;;;1.80;;
10142;SDS011;5112;54.088;13.446;2023-05-20T17:47:33;2.90;;;1.83;;
10142;SDS011;5112;54.088;13.446;2023-05-20T17:57:35;4.80;;;2.50;;
10142;SDS011;5112;54.088;13.446;2023-05-20T18:07:38;3.13;;;2.10;;
10142;SDS011;5112;54.088;13.446;2023-05-20T18:17:39;6.90;;;3.33;;
10142;SDS011;5112;54.088;13.446;2023-05-20T18:27:42;4.77;;;2.07;;
10142;SDS011;5112;54.088;13.446;2023-05-20T18:37:44;5.07;;;2.80;;
10142;SDS011;5112;54.088;13.446;2023-05-20T18:47:47;5.97;;;3.10;;
10142;SDS011;5112;54.088;13.446;2023-05-20T18:57:49;4.07;;;2.57;;
10142;SDS011;5112;54.088;13.446;2023-05-20T19:07:52;4.53;;;2.50;;
10142;SDS011;5112;54.088;13.446;2023-05-20T19:17:54;3.70;;;2.27;;
10142;SDS011;5112;54.088;13.446;2023-05-20T19:27:57;6.43;;;2.40;;
10142;SDS011;5112;54.088;13.446;2023-05-20T19:37:58;6.40;;;3.03;;
10142;SDS011;5112;54.088;13.446;2023-05-20T19:48:02;3.97;;;3.20;;
10142;SDS011;5112;54.088;13.446;2023-05-20T19:58:04;5.57;;;3.27;;
10142;SDS011;5112;54.088;13.446;2023-05-20T20:08:07;4.47;;;3.23;;
10142;SDS011;5112;54.088;13.446;2023-05-20T20:18:08;6.83;;;2.70;;
10142;SDS011;5112;54.088;13.446;2023-05-20T20:28:11;5.27;;;3.43;;
10142;SDS011;5112;54.088;13.446;2023-05-20T20:38:14;4.93;;;3.07;;
10142;SDS011;5112;54.088;13.446;2023-05-20T20:48:18;5.67;;;2.90;;
10142;SDS011;5112;54.088;13.446;2023-05-20T20:58:25;4.87;;;2.90;;
10142;SDS011;5112;54.088;13.446;2023-05-20T21:08:28;4.70;;;3.17;;
10142;SDS011;5112;54.088;13.446;2023-05-20T21:18:30;6.40;;;2.90;;
10142;SDS011;5112;54.088;13.446;2023-05-20T21:28:33;4.40;;;3.30;;
10142;SDS011;5112;54.088;13.446;2023-05-20T21:38:35;6.80;;;3.20;;
10142;SDS011;5112;54.088;13.446;2023-05-20T21:48:38;4.70;;;3.10;;
10142;SDS011;5112;54.088;13.446;2023-05-20T21:58:40;3.83;;;2.73;;
10142;SDS011;5112;54.088;13.446;2023-05-20T22:08:43;7.60;;;3.77;;
10142;SDS011;5112;54.088;13.446;2023-05-20T22:18:44;4.20;;;3.43;;
10142;SDS011;5112;54.088;13.446;2023-05-20T22:28:47;6.73;;;3.37;;
10142;SDS011;5112;54.088;13.446;2023-05-20T22:38:49;5.90;;;4.22;;
10142;SDS011;5112;54.088;13.446;2023-05-20T22:48:53;6.17;;;3.83;;
10142;SDS011;5112;54.088;13.446;2023-05-20T22:58:57;8.67;;;4.10;;
10142;SDS011;5112;54.088;13.446;2023-05-20T23:09:00;5.40;;;3.87;;
10142;SDS011;5112;54.088;13.446;2023-05-20T23:19:03;5.73;;;4.13;;
10142;SDS011;5112;54.088;13.446;2023-05-20T23:29:06;6.37;;;4.10;;
10142;SDS011;5112;54.088;13.446;2023-05-20T23:39:08;4.33;;;3.57;;
10142;SDS011;5112;54.088;13.446;2023-05-20T23:49:11;4.40;;;4.00;;
10142;SDS011;5112;54.088;13.446;2023-05-20T23:59:13;5.27;;;4.17;;
